Terminal Aerodrome Forecast
Issued by NWS Sioux Falls, SD

Home | Current Version | Previous Version | Text Only | Print | Product List | Glossary On
Versions: 1 2 3 4 5 6 7 8 9 10 11 12 13 14 15
000
FTUS43 KFSD 192337
TAFFSD
TAF
KFSD 192337Z 2000/2024 16013KT P6SM OVC200
     FM200100 16013KT P6SM OVC200 WS009/18042KT
     FM200600 17014KT P6SM OVC150 WS014/19045KT
     FM200900 18013KT 6SM BR VCSH OVC008
     FM201500 19013KT P6SM OVC008
     FM201700 26013KT P6SM SCT015 OVC100
     FM202100 30012KT P6SM SCT250=

USA.gov is the U.S. government's official web portal to all federal, state and local government web resources and services.